createdAt,value
2022-11-14T00:01:24.686Z,96455.38
2022-11-14T00:03:52.947Z,96460.31
2022-11-14T00:06:21.680Z,96457.31
2022-11-14T00:08:51.307Z,96455.38
2022-11-14T00:11:20.487Z,96465.38
2022-11-14T00:13:48.685Z,96454.00
2022-11-14T00:16:17.010Z,96448.59
2022-11-14T00:18:45.178Z,96458.13
2022-11-14T00:21:13.409Z,96448.59
2022-11-14T00:23:41.565Z,96452.81
2022-11-14T00:26:11.171Z,96449.72
2022-11-14T00:28:39.439Z,96454.31
2022-11-14T00:31:08.222Z,96446.47
2022-11-14T00:33:36.491Z,96446.69
2022-11-14T00:36:04.965Z,96445.31
2022-11-14T00:38:33.153Z,96431.66
2022-11-14T00:41:03.420Z,96452.09
2022-11-14T00:43:33.235Z,96442.56
2022-11-14T00:46:01.639Z,96446.50
2022-11-14T00:48:30.187Z,96443.97
2022-11-14T00:50:58.572Z,96431.06
2022-11-14T00:53:26.780Z,96444.00
2022-11-14T00:55:55.008Z,96452.97
2022-11-14T00:58:23.268Z,96442.97
2022-11-14T01:00:52.886Z,96441.47
2022-11-14T01:03:21.401Z,96439.28
2022-11-14T01:05:51.712Z,96408.72
2022-11-14T01:08:20.739Z,96436.88
2022-11-14T01:10:51.021Z,96432.16
2022-11-14T01:13:20.120Z,96424.13
2022-11-14T01:15:50.349Z,96429.63
2022-11-14T01:18:21.823Z,96428.47
2022-11-14T01:20:50.653Z,96425.59
2022-11-14T01:23:19.270Z,96432.19
2022-11-14T01:25:47.482Z,96428.13
2022-11-14T01:28:18.256Z,96422.50
2022-11-14T01:30:47.157Z,96419.84
2022-11-14T01:33:15.356Z,96424.03
2022-11-14T01:35:44.981Z,96421.16
2022-11-14T01:38:15.409Z,96407.88
2022-11-14T01:40:45.092Z,96413.22
2022-11-14T01:43:32.329Z,96415.09
2022-11-14T01:46:03.300Z,96405.81
2022-11-14T01:48:36.817Z,96384.25
2022-11-14T01:51:17.386Z,96398.84
2022-11-14T01:53:47.887Z,96408.50
2022-11-14T01:56:20.917Z,96397.81
2022-11-14T01:58:53.532Z,96396.31
2022-11-14T02:01:22.110Z,96392.69
2022-11-14T02:03:54.273Z,96394.75
2022-11-14T02:06:26.993Z,96391.16
2022-11-14T02:08:56.023Z,96393.25
2022-11-14T02:11:24.314Z,96386.47
2022-11-14T02:13:52.862Z,96387.75
2022-11-14T02:16:21.588Z,96390.09
2022-11-14T02:18:49.819Z,96389.16
2022-11-14T02:21:19.535Z,96381.50
2022-11-14T02:23:47.791Z,96377.25
2022-11-14T02:26:19.284Z,96378.09
2022-11-14T02:28:47.895Z,96381.88
2022-11-14T02:31:16.828Z,96374.00
2022-11-14T02:33:45.334Z,96378.47
2022-11-14T02:36:13.619Z,96376.38
2022-11-14T02:38:43.260Z,96376.00
2022-11-14T02:41:11.471Z,96380.34
2022-11-14T02:43:39.723Z,96377.06
2022-11-14T02:46:07.925Z,96378.88
2022-11-14T02:48:36.211Z,96377.63
2022-11-14T02:51:04.483Z,96377.53
2022-11-14T02:53:32.733Z,96374.41
2022-11-14T02:56:02.538Z,96375.16
2022-11-14T02:58:30.974Z,96370.47
2022-11-14T03:01:19.662Z,96385.06
2022-11-14T03:03:47.758Z,96367.31
2022-11-14T03:06:16.541Z,96370.75
2022-11-14T03:08:44.685Z,96366.09
2022-11-14T03:11:14.329Z,96374.06
2022-11-14T03:13:42.598Z,96365.75
2022-11-14T03:16:13.282Z,96359.50
2022-11-14T03:18:41.609Z,96359.56
2022-11-14T03:21:11.749Z,96357.00
2022-11-14T03:23:40.037Z,96359.34
2022-11-14T03:26:10.589Z,96349.69
2022-11-14T03:28:40.879Z,96349.59
2022-11-14T03:31:11.762Z,96354.59
2022-11-14T03:33:40.203Z,96259.63
2022-11-14T03:36:09.234Z,96346.66
2022-11-14T03:38:38.170Z,96345.72
2022-11-14T03:41:06.763Z,96339.06
2022-11-14T03:43:35.799Z,96338.09
2022-11-14T03:46:05.719Z,96305.97
2022-11-14T03:48:33.966Z,96335.19
2022-11-14T03:51:02.216Z,96346.69
2022-11-14T03:53:30.401Z,96346.88
2022-11-14T03:55:58.531Z,96343.41
2022-11-14T03:58:27.024Z,96341.94
2022-11-14T04:00:56.630Z,96332.69
2022-11-14T04:03:26.872Z,96297.25
2022-11-14T04:05:55.111Z,96338.06
2022-11-14T04:08:23.330Z,96331.84
2022-11-14T04:10:51.670Z,96350.81
2022-11-14T04:13:19.927Z,96348.13
2022-11-14T04:15:48.362Z,96352.03
2022-11-14T04:18:16.643Z,96352.25
2022-11-14T04:20:46.250Z,96348.69
2022-11-14T04:23:14.466Z,96348.84
2022-11-14T04:25:44.496Z,96341.78
2022-11-14T04:28:12.921Z,96347.00
2022-11-14T04:30:41.215Z,96346.94
2022-11-14T04:33:09.531Z,96346.34
2022-11-14T04:35:37.844Z,96345.16
2022-11-14T04:38:07.644Z,96275.38
2022-11-14T04:40:35.921Z,96357.06
2022-11-14T04:43:04.284Z,96355.97
2022-11-14T04:45:32.617Z,96354.81
2022-11-14T04:48:00.925Z,96365.53
2022-11-14T04:50:29.160Z,96358.13
2022-11-14T04:52:57.493Z,96351.28
2022-11-14T04:55:27.138Z,96353.72
2022-11-14T04:57:56.369Z,96361.59
2022-11-14T05:00:25.812Z,96362.47
2022-11-14T05:02:54.041Z,96359.09
2022-11-14T05:05:22.355Z,96353.66
2022-11-14T05:07:50.623Z,96351.72
2022-11-14T05:10:18.984Z,96355.03
2022-11-14T05:12:48.652Z,96359.63
2022-11-14T05:15:17.053Z,96363.41
2022-11-14T05:17:45.331Z,96358.75
2022-11-14T05:20:14.181Z,96358.22
2022-11-14T05:22:42.469Z,96361.00
2022-11-14T05:25:11.783Z,96359.56
2022-11-14T05:27:40.021Z,96355.75
2022-11-14T05:30:11.406Z,96363.00
2022-11-14T05:32:39.599Z,96358.44
2022-11-14T05:35:09.364Z,96360.06
2022-11-14T05:37:37.707Z,96351.19
2022-11-14T05:40:07.213Z,96355.38
2022-11-14T05:42:35.415Z,96351.72
2022-11-14T05:45:03.701Z,96349.38
2022-11-14T05:47:33.321Z,96355.88
2022-11-14T05:50:01.541Z,96355.19
2022-11-14T05:52:29.743Z,96346.50
2022-11-14T05:54:58.066Z,96349.31
2022-11-14T05:57:26.270Z,96355.06
2022-11-14T05:59:54.486Z,96351.31
2022-11-14T06:02:22.836Z,96325.31
2022-11-14T06:04:52.560Z,96349.47
2022-11-14T06:07:20.964Z,96353.81
2022-11-14T06:09:49.216Z,96354.06
2022-11-14T06:12:19.402Z,96357.13
2022-11-14T06:14:47.623Z,96358.22
2022-11-14T06:17:15.843Z,96362.25
2022-11-14T06:19:44.069Z,96352.25
2022-11-14T06:22:13.730Z,96360.78
2022-11-14T06:24:41.932Z,96352.94
2022-11-14T06:27:10.238Z,96351.69
2022-11-14T06:29:38.500Z,96360.66
2022-11-14T06:32:06.831Z,96361.91
2022-11-14T06:34:35.027Z,96364.97
2022-11-14T06:37:03.205Z,96338.38
2022-11-14T06:39:32.793Z,96363.19
2022-11-14T06:42:00.950Z,96359.94
2022-11-14T06:44:30.964Z,96356.06
2022-11-14T06:46:59.398Z,96348.13
2022-11-14T06:49:28.021Z,96352.44
2022-11-14T06:51:56.323Z,96358.25
2022-11-14T06:54:24.571Z,96357.41
2022-11-14T06:56:54.260Z,96352.41
2022-11-14T06:59:22.507Z,96351.34
2022-11-14T07:01:50.732Z,96345.66
2022-11-14T07:04:19.232Z,96350.94
2022-11-14T07:06:47.523Z,96352.28
2022-11-14T07:09:15.923Z,96299.94
2022-11-14T07:11:46.943Z,96355.72
2022-11-14T07:14:16.690Z,96336.91
2022-11-14T07:16:44.883Z,96343.34
2022-11-14T07:19:13.318Z,96356.94
2022-11-14T07:21:41.609Z,96342.72
2022-11-14T07:24:09.836Z,96337.91
2022-11-14T07:26:38.089Z,96320.34
2022-11-14T07:29:06.294Z,96335.16
2022-11-14T07:31:35.955Z,96331.16
2022-11-14T07:34:06.100Z,96321.38
2022-11-14T07:36:34.373Z,96320.50
2022-11-14T07:39:02.642Z,96302.63
2022-11-14T07:41:30.830Z,96321.47
2022-11-14T07:43:59.245Z,96320.94
2022-11-14T07:46:27.465Z,96310.47
2022-11-14T07:48:57.060Z,96318.03
2022-11-14T07:51:25.290Z,96314.06
2022-11-14T07:53:54.757Z,96299.28
2022-11-14T07:56:24.194Z,96303.03
2022-11-14T07:58:52.478Z,96298.53
2022-11-14T08:01:20.840Z,96291.91
2022-11-14T08:03:49.225Z,96287.91
2022-11-14T08:06:18.971Z,96285.53
2022-11-14T08:08:47.202Z,96279.13
2022-11-14T08:11:31.815Z,96276.59
2022-11-14T08:14:03.343Z,96285.06
2022-11-14T08:16:31.567Z,96279.34
2022-11-14T08:18:59.879Z,96275.53
2022-11-14T08:21:29.512Z,96267.63
2022-11-14T08:23:57.773Z,96274.63
2022-11-14T08:26:28.967Z,96264.72
2022-11-14T08:29:01.274Z,96261.41
2022-11-14T08:31:29.612Z,96263.47
2022-11-14T08:33:57.789Z,96262.00
2022-11-14T08:36:25.960Z,96251.16
2022-11-14T08:39:01.476Z,96251.59
2022-11-14T08:41:30.385Z,96254.47
2022-11-14T08:43:58.680Z,96254.88
2022-11-14T08:46:26.906Z,96252.28
2022-11-14T08:48:55.190Z,96239.63
2022-11-14T08:51:23.459Z,96239.72
2022-11-14T08:53:52.612Z,96237.00
2022-11-14T08:56:22.227Z,96239.63
2022-11-14T08:58:50.606Z,96226.72
2022-11-14T09:01:18.808Z,96226.53
2022-11-14T09:03:47.168Z,96223.72
2022-11-14T09:06:15.506Z,96220.50
2022-11-14T09:08:43.745Z,96194.91
2022-11-14T09:11:14.364Z,96209.59
2022-11-14T09:13:47.762Z,96169.06
2022-11-14T09:16:15.943Z,96210.97
2022-11-14T09:18:44.133Z,96205.84
2022-11-14T09:21:12.962Z,96201.81
2022-11-14T09:23:41.888Z,96192.72
2022-11-14T09:26:11.234Z,96206.22
2022-11-14T09:28:39.605Z,96187.19
2022-11-14T09:31:12.329Z,96179.59
2022-11-14T09:33:40.812Z,96172.22
2022-11-14T09:36:12.426Z,96167.31
2022-11-14T09:38:40.693Z,96162.56
2022-11-14T09:41:24.560Z,96160.94
2022-11-14T09:44:31.716Z,96142.34
2022-11-14T09:47:04.156Z,96141.28
2022-11-14T09:49:37.389Z,96146.59
2022-11-14T09:52:16.340Z,96126.47
2022-11-14T09:54:50.218Z,96134.41
2022-11-14T09:57:21.588Z,96129.81
2022-11-14T09:59:51.042Z,96123.16
2022-11-14T10:02:34.598Z,96119.13
2022-11-14T10:05:18.393Z,96125.06
2022-11-14T10:08:01.979Z,96114.16
2022-11-14T10:10:46.336Z,96111.84
2022-11-14T10:13:27.294Z,96100.88
2022-11-14T10:16:02.184Z,96103.47
2022-11-14T10:18:44.304Z,96098.03
2022-11-14T10:21:28.951Z,96090.66
2022-11-14T10:24:04.173Z,96089.81
2022-11-14T10:26:37.643Z,96087.31
2022-11-14T10:29:28.652Z,96078.81
2022-11-14T10:32:06.365Z,96072.97
2022-11-14T10:34:41.919Z,96062.00
2022-11-14T10:37:20.325Z,96056.94
2022-11-14T10:39:53.093Z,96053.09
2022-11-14T10:42:26.753Z,96041.81
2022-11-14T10:45:03.376Z,96043.47
2022-11-14T10:47:41.193Z,96043.75
2022-11-14T10:50:20.232Z,96040.31
2022-11-14T10:52:49.834Z,96037.50
2022-11-14T10:55:32.039Z,96031.69
2022-11-14T10:58:12.217Z,96020.53
2022-11-14T11:00:40.633Z,96030.66
2022-11-14T11:03:09.299Z,96021.19
2022-11-14T11:05:48.657Z,96008.38
2022-11-14T11:08:43.729Z,96018.78
2022-11-14T11:11:32.688Z,96006.66
2022-11-14T11:14:02.612Z,96007.16
2022-11-14T11:16:30.924Z,95999.81
2022-11-14T11:19:16.410Z,95996.53
2022-11-14T11:21:54.257Z,95995.09
2022-11-14T11:24:33.299Z,95988.81
2022-11-14T11:27:24.089Z,95982.03
2022-11-14T11:30:19.072Z,95988.91
2022-11-14T11:32:47.355Z,95988.38
2022-11-14T11:35:17.479Z,95979.75
2022-11-14T11:37:54.817Z,95981.59
2022-11-14T11:40:26.707Z,95973.06
2022-11-14T11:45:52.323Z,95971.13
2022-11-14T11:48:22.787Z,95970.78
2022-11-14T11:50:51.556Z,95950.66
2022-11-14T11:53:26.738Z,95943.41
2022-11-14T11:56:00.275Z,95960.16
2022-11-14T11:58:34.244Z,95962.69
2022-11-14T12:01:02.667Z,95959.75
2022-11-14T12:03:31.156Z,95959.94
2022-11-14T12:06:12.315Z,95839.19
2022-11-14T12:08:53.388Z,95947.06
2022-11-14T12:11:26.431Z,95882.38
2022-11-14T12:14:32.695Z,95941.47
2022-11-14T12:17:17.360Z,95941.81
2022-11-14T12:20:14.112Z,95914.09
2022-11-14T12:23:16.238Z,95933.31
2022-11-14T12:26:05.658Z,95795.13
2022-11-14T12:28:53.895Z,95944.00
2022-11-14T12:31:23.512Z,95940.09
2022-11-14T12:33:57.430Z,95935.66
2022-11-14T12:36:30.625Z,95931.84
2022-11-14T12:39:00.486Z,95933.00
2022-11-14T12:41:33.776Z,95928.81
2022-11-14T12:44:33.083Z,95906.81
2022-11-14T12:47:19.181Z,95928.25
2022-11-14T12:50:06.518Z,95925.53
2022-11-14T12:52:49.894Z,95929.66
2022-11-14T12:55:57.078Z,95934.13
2022-11-14T12:58:48.179Z,95928.63
2022-11-14T13:01:37.988Z,95927.84
2022-11-14T13:04:19.464Z,95926.59
2022-11-14T13:06:59.648Z,95924.31
2022-11-14T13:09:34.787Z,95917.63
2022-11-14T13:12:52.540Z,95914.84
2022-11-14T13:15:51.248Z,95928.19
2022-11-14T13:18:42.975Z,95916.88
2022-11-14T13:21:45.109Z,95909.66
2022-11-14T13:24:16.340Z,95911.03
2022-11-14T13:26:53.174Z,95917.50
2022-11-14T13:29:49.979Z,95913.34
2022-11-14T13:33:07.539Z,95919.34
2022-11-14T13:36:02.205Z,95918.00
2022-11-14T13:39:02.474Z,95922.78
2022-11-14T13:42:00.227Z,95907.81
2022-11-14T13:45:06.629Z,95925.69
2022-11-14T13:47:52.285Z,95924.72
2022-11-14T13:50:26.618Z,95912.09
2022-11-14T13:52:56.710Z,95927.97
2022-11-14T13:55:32.956Z,95922.84
2022-11-14T13:58:16.018Z,95919.31
2022-11-14T14:01:08.051Z,95931.28
2022-11-14T14:03:52.282Z,95934.94
2022-11-14T14:06:39.891Z,95927.09
2022-11-14T14:09:28.506Z,95924.88
2022-11-14T14:12:46.491Z,95916.63
2022-11-14T14:15:24.262Z,95933.59
2022-11-14T14:18:06.671Z,95923.97
2022-11-14T14:20:45.557Z,95925.56
2022-11-14T14:23:35.904Z,95930.78
2022-11-14T14:26:16.422Z,95929.84
2022-11-14T14:28:57.751Z,95934.69
2022-11-14T14:31:26.135Z,95936.75
2022-11-14T14:33:54.444Z,95931.50
2022-11-14T14:36:25.782Z,95913.66
2022-11-14T14:39:17.248Z,95928.53
2022-11-14T14:41:47.985Z,95934.59
2022-11-14T14:44:26.907Z,95935.06
2022-11-14T14:46:55.693Z,95938.09
2022-11-14T14:49:27.607Z,95934.59
2022-11-14T14:51:58.604Z,95932.63
2022-11-14T14:54:29.890Z,95931.16
2022-11-14T14:57:02.651Z,95929.63
2022-11-14T14:59:32.353Z,95930.06
2022-11-14T15:02:01.471Z,95929.84
2022-11-14T15:04:30.423Z,95935.66
2022-11-14T15:06:58.824Z,95924.28
2022-11-14T15:09:29.819Z,95934.41
2022-11-14T15:12:01.573Z,95926.19
2022-11-14T15:14:32.479Z,95928.38
2022-11-14T15:17:01.599Z,95925.16
2022-11-14T15:19:41.031Z,95936.22
2022-11-14T15:22:25.419Z,95927.66
2022-11-14T15:25:21.516Z,95923.78
2022-11-14T15:27:54.616Z,95925.84
2022-11-14T15:30:25.919Z,95938.84
2022-11-14T15:32:55.656Z,95946.50
2022-11-14T15:35:32.831Z,95943.38
2022-11-14T15:38:22.140Z,95937.22
2022-11-14T15:41:19.029Z,95944.72
2022-11-14T15:43:55.590Z,95956.25
2022-11-14T15:46:43.211Z,95949.31
2022-11-14T15:49:20.450Z,95962.19
2022-11-14T15:51:51.775Z,95951.84
2022-11-14T15:54:25.805Z,95965.97
2022-11-14T15:56:55.106Z,95964.38
2022-11-14T15:59:25.615Z,95983.28
2022-11-14T16:01:59.226Z,95963.31
2022-11-14T16:04:32.089Z,95975.00
2022-11-14T16:07:00.422Z,95974.47
2022-11-14T16:09:28.700Z,95973.41
2022-11-14T16:11:57.026Z,95979.25
2022-11-14T16:14:26.649Z,95978.91
2022-11-14T16:16:55.290Z,95919.44
2022-11-14T16:19:23.601Z,95968.09
2022-11-14T16:21:51.851Z,95981.91
2022-11-14T16:24:22.172Z,95984.28
2022-11-14T16:26:51.225Z,95968.53
2022-11-14T16:29:19.955Z,95972.88
2022-11-14T16:31:51.998Z,95978.16
2022-11-14T16:34:22.443Z,95984.00
2022-11-14T16:36:51.810Z,95981.00
2022-11-14T16:39:21.116Z,95980.06
2022-11-14T16:41:49.547Z,95976.59
2022-11-14T16:44:18.772Z,95970.13
2022-11-14T16:46:47.405Z,95977.81
2022-11-14T16:49:20.100Z,95971.25
2022-11-14T16:51:50.850Z,95977.16
2022-11-14T16:54:21.349Z,95965.94
2022-11-14T16:56:49.731Z,95978.63
2022-11-14T16:59:18.060Z,95986.88
2022-11-14T17:01:48.321Z,95982.38
2022-11-14T17:04:18.112Z,95984.25
2022-11-14T17:06:46.754Z,95985.84
2022-11-14T17:09:15.509Z,95978.66
2022-11-14T17:11:44.760Z,95981.72
2022-11-14T17:14:13.278Z,95984.81
2022-11-14T17:16:41.618Z,95980.56
2022-11-14T17:19:09.844Z,95986.31
2022-11-14T17:21:39.571Z,95991.84
2022-11-14T17:24:08.213Z,95989.75
2022-11-14T17:26:37.852Z,95984.84
2022-11-14T17:29:06.506Z,95997.28
2022-11-14T17:31:38.400Z,95998.94
2022-11-14T17:34:09.969Z,95998.41
2022-11-14T17:36:39.924Z,95984.59
2022-11-14T17:39:08.627Z,95996.28
2022-11-14T17:41:37.013Z,95994.91
2022-11-14T17:44:05.777Z,96006.22
2022-11-14T17:46:34.666Z,96000.38
2022-11-14T17:49:03.251Z,95930.78
2022-11-14T17:51:32.012Z,95988.25
2022-11-14T17:54:01.736Z,95992.00
2022-11-14T17:56:29.980Z,95984.56
2022-11-14T17:58:58.270Z,95985.19
2022-11-14T18:01:27.062Z,95984.25
2022-11-14T18:03:55.288Z,95981.28
2022-11-14T18:06:24.513Z,95986.28
2022-11-14T18:08:52.883Z,95988.56
2022-11-14T18:11:22.592Z,95984.63
2022-11-14T18:13:55.794Z,95987.19
2022-11-14T18:16:26.480Z,95983.91
2022-11-14T18:19:03.368Z,95980.50
2022-11-14T18:21:32.038Z,95994.97
2022-11-14T18:24:01.365Z,95991.91
2022-11-14T18:26:31.038Z,95985.56
2022-11-14T18:29:00.959Z,95993.00
2022-11-14T18:31:30.021Z,95962.47
2022-11-14T18:33:58.828Z,95977.09
2022-11-14T18:36:27.749Z,95988.00
2022-11-14T18:39:03.179Z,95988.16
2022-11-14T18:41:33.772Z,96000.88
2022-11-14T18:44:03.884Z,96007.56
2022-11-14T18:46:37.198Z,95968.56
2022-11-14T18:49:05.765Z,96009.97
2022-11-14T18:51:42.065Z,96004.72
2022-11-14T18:54:13.378Z,96004.56
2022-11-14T18:56:44.587Z,96012.38
2022-11-14T18:59:13.150Z,96008.94
2022-11-14T19:01:41.982Z,96006.03
2022-11-14T19:04:12.144Z,96012.69
2022-11-14T19:06:43.807Z,96011.03
2022-11-14T19:09:16.172Z,96013.69
2022-11-14T19:12:03.275Z,96001.16
2022-11-14T19:14:31.704Z,96016.91
2022-11-14T19:17:00.894Z,96012.13
2022-11-14T19:19:29.951Z,96015.81
2022-11-14T19:21:58.530Z,96015.06
2022-11-14T19:24:27.167Z,96021.94
2022-11-14T19:26:57.931Z,96013.19
2022-11-14T19:29:26.471Z,96012.75
2022-11-14T19:31:55.203Z,96015.47
2022-11-14T19:34:24.451Z,96020.19
2022-11-14T19:36:59.847Z,96022.34
2022-11-14T19:39:29.147Z,96022.66
2022-11-14T19:41:58.971Z,95998.66
2022-11-14T19:44:27.664Z,96012.38
2022-11-14T19:46:56.317Z,96007.00
2022-11-14T19:49:24.622Z,95958.22
2022-11-14T19:51:53.409Z,96021.81
2022-11-14T19:54:21.782Z,96017.53
2022-11-14T19:56:50.029Z,96011.41
2022-11-14T19:59:24.130Z,96015.09
2022-11-14T20:01:55.524Z,96015.59
2022-11-14T20:04:24.272Z,96012.44
2022-11-14T20:06:52.645Z,96009.50
2022-11-14T20:09:20.968Z,96011.28
2022-11-14T20:11:49.291Z,96015.56
2022-11-14T20:14:17.700Z,96016.66
2022-11-14T20:16:47.428Z,96012.66
2022-11-14T20:19:16.290Z,96006.94
2022-11-14T20:21:44.542Z,96011.31
2022-11-14T20:24:15.567Z,96025.03
2022-11-14T20:26:43.758Z,96004.47
2022-11-14T20:29:12.124Z,96005.28
2022-11-14T20:31:40.973Z,96001.78
2022-11-14T20:34:12.080Z,96003.09
2022-11-14T20:37:09.408Z,96004.38
2022-11-14T20:39:29.237Z,96002.00
2022-11-14T20:41:57.873Z,95999.81
2022-11-14T20:44:26.143Z,96000.31
2022-11-14T20:46:55.680Z,96003.66
2022-11-14T20:49:25.495Z,95999.63
2022-11-14T20:51:53.830Z,95993.38
2022-11-14T20:54:22.101Z,95965.09
2022-11-14T20:56:50.389Z,95997.50
2022-11-14T20:59:18.640Z,96001.88
2022-11-14T21:01:46.954Z,96001.50
2022-11-14T21:04:15.403Z,96002.75
2022-11-14T21:06:45.191Z,95996.31
2022-11-14T21:09:13.403Z,95992.63
2022-11-14T21:11:41.648Z,95998.69
2022-11-14T21:14:12.606Z,95908.91
2022-11-14T21:16:41.537Z,95997.34
2022-11-14T21:19:09.741Z,96003.38
2022-11-14T21:21:39.037Z,95993.00
2022-11-14T21:24:09.272Z,96001.09
2022-11-14T21:26:40.311Z,95997.81
2022-11-14T21:29:11.192Z,96008.66
2022-11-14T21:31:41.296Z,96006.63
2022-11-14T21:34:13.743Z,95998.63
2022-11-14T21:36:45.553Z,96004.88
2022-11-14T21:39:17.571Z,96012.97
2022-11-14T21:41:48.554Z,95923.78
2022-11-14T21:44:19.133Z,96006.13
2022-11-14T21:46:48.852Z,96008.47
2022-11-14T21:49:17.461Z,96005.38
2022-11-14T21:51:45.730Z,95999.88
2022-11-14T21:54:18.550Z,96017.03
2022-11-14T21:56:46.808Z,96014.59
2022-11-14T21:59:21.427Z,96004.16
2022-11-14T22:02:10.493Z,96012.06
2022-11-14T22:04:39.170Z,96016.22
2022-11-14T22:07:09.515Z,96007.13
2022-11-14T22:09:45.158Z,96003.88
2022-11-14T22:12:13.879Z,96012.47
2022-11-14T22:14:42.074Z,96016.47
2022-11-14T22:17:10.384Z,96004.97
2022-11-14T22:19:38.686Z,95996.53
2022-11-14T22:22:06.943Z,95998.59
2022-11-14T22:24:35.134Z,95992.06
2022-11-14T22:27:05.012Z,95991.38
2022-11-14T22:29:33.286Z,95989.75
2022-11-14T22:32:01.620Z,95981.81
2022-11-14T22:34:29.860Z,95982.97
2022-11-14T22:36:58.122Z,95968.69
2022-11-14T22:39:26.342Z,95978.59
2022-11-14T22:41:54.594Z,95976.06
2022-11-14T22:44:24.340Z,95973.81
2022-11-14T22:46:52.570Z,95971.59
2022-11-14T22:49:21.309Z,95972.56
2022-11-14T22:51:49.752Z,95969.41
2022-11-14T22:54:18.806Z,95961.41
2022-11-14T22:56:47.023Z,95956.06
2022-11-14T22:59:15.265Z,95957.03
2022-11-14T23:01:44.863Z,95953.19
2022-11-14T23:04:14.044Z,95955.91
2022-11-14T23:06:42.430Z,95953.84
2022-11-14T23:09:10.864Z,95947.56
2022-11-14T23:11:39.147Z,95943.72
2022-11-14T23:14:07.403Z,95948.53
2022-11-14T23:16:36.017Z,95948.34
2022-11-14T23:19:05.809Z,95970.22
2022-11-14T23:21:35.532Z,95942.56
2022-11-14T23:24:06.875Z,95954.75
2022-11-14T23:26:35.467Z,95954.50
2022-11-14T23:29:04.382Z,95950.16
2022-11-14T23:31:32.615Z,95960.06
2022-11-14T23:34:00.901Z,95952.75
2022-11-14T23:36:30.636Z,95947.63
2022-11-14T23:38:58.889Z,95949.81
2022-11-14T23:41:27.177Z,95954.81
2022-11-14T23:43:55.460Z,95951.72
2022-11-14T23:46:23.783Z,95943.78
2022-11-14T23:48:53.493Z,95951.72
2022-11-14T23:51:21.878Z,95949.38
2022-11-14T23:53:52.081Z,95953.28
2022-11-14T23:56:20.324Z,95948.94
2022-11-14T23:58:48.651Z,95941.38
